Brea, CA (92823)

2:15 AM PST on February 14, 2016 (GMT -0800)
Kerrigan Ranch | | Change Station
CLOSE
Current Station
Personal Weather Station
Location: Yorba Linda, CA
Elevation: 699 ft
Nearby Weather Stations

Elev 699 ft 33.90 °N, 117.79 °W | Updated 33 seconds ago

Clear
Clear
53.4 °F
Feels Like 53.4 °F
N
1.1
Wind Variable Wind from ESE

Today
High -- | Low -- °F
--% Chance of Precip.
Yesterday
High -- | Low -- °F
Precip. -- in
Pressure 30.08 in
Visibility 3.0 miles
Clouds Clear
Dew Point 39 °F
Humidity 58%
Rainfall 0.00 in
Snow Depth Not available.
6:37 AM 5:34 PM
Waxing Crescent, 40% visible
METAR KCNO 140953Z AUTO 30003KT 3SM HZ CLR 08/06 A3009 RMK AO2 SLP184 T00830056
Pressure 30.08 in
Visibility 3.0 miles
Clouds Clear
Dew Point 39 °F
Humidity 58%
Rainfall 0.00 in
Snow Depth Not available.
6:37 AM 5:34 PM
Waxing Crescent, 40% visible
METAR KCNO 140953Z AUTO 30003KT 3SM HZ CLR 08/06 A3009 RMK AO2 SLP184 T00830056

10-Day Weather Forecast

Almanac

Astronomy

Feb. 14, 2016 Rise Set
Actual Time
Civil Twilight
Nautical Twilight
Astronomical Twilight
Moon
Length of Visible Light
Length of Day
Tomorrow will be .
, % of the Moon is Illuminated

Today's Extremes

State Highs State Lows

Community

WunderPhotos

Upload Photos

1,892,765 photos uploaded!

WunderBlog® & News

Nearby

Air Quality

  Air Quality AQ Index Pollutant
Not available.

Snow Depth

Station Depth Elevation

Earthquake Activity

City Distance Mag. Time & Date
Minimum magnitude displayed is 2.5.

Coastal Water Temperatures

Place Temperature

Stations

Nearby Weather Stations

Station Location Temp. Windchill Dew Point Humidity Wind Precip. Elev Updated Type
                   

Watches & Warnings

There are currently no watches in effect.